Pagina principale
METAR-TAF:

METAR-TAF

Aeroporti :

Tolone, Francia

Aeroporto di Tolone-Hyères

latitudine: 43-06N, longitudine: 006-09E, altezza: 3 m

Osservazione

Il bollettino è stato emesso 44 minuti fa, alle 06:00 UTC
Vento 15 kt da nord/nord-ovest
Temperature 23°C
Umidità 36%
Pressione 1006 hPa
Visibilità 10 km o più
nessuna nube inferiore a 1500 m e nessun cumulonembo

METAR: LFTH 260600Z AUTO 33015KT CAVOK 23/07 Q1006 BECMG 32015G25KT

Ora: 08:44 (06:44 UTC)

Previsione

Il bollettino è stato emesso 4 ore e 44 minuti fa, alle 02:00 UTC
Previsione valida dal 26 alle 03 UTC al 27 alle 03 UTC
Vento 15 kt da nord-ovest con raffiche fino a 25 kt
Visibilità 10 km o più
nessuna nube inferiore a 1500 m e nessun cumulonembo

TAF: LFTH 260200Z 2603/2703 32015G25KT CAVOK

Osservazioni e previsioni meteorologiche di più di 4000 aeroporti (messaggi METAR e TAF).

Le stazioni disponibili sono rappresentate dai dischi gialli e rossi sulla carta.

Puntare il mouse per vedere il nome della stazione.

Clicca sopra per visualizzare le osservazioni e previsioni meteorologiche.

Per cambiare la mappa : fare clic sui pulsanti verdi con una croce nera per ingrandire, il pulsante verde con un trattino per diminuire, o sulla freccia verde per le mappe adiacenti.


METAR-TAF: